Amherst, TX

7:00 AM CDT on August 25, 2016 (GMT -0500)
27th | | Change Station

Elev 3556 ft 33.90 °N, 102.33 °W | Updated 11 minutes ago

Mostly Cloudy
Mostly Cloudy
61.0 °F
Feels Like 61.0 °F
N
0.0
Wind Variable Wind from ESE

Today
High -- | Low -- °F
--% Chance of Precip.
Yesterday
High -- | Low -- °F
Precip. -- in
Pressure 30.15 in
Visibility 10.0 miles
Clouds Mostly Cloudy 2800 ft
Mostly Cloudy 5000 ft
Dew Point 58 °F
Humidity 90%
Rainfall 0.00 in
Snow Depth Not available.
7:18 AM 8:23 PM
Last Quarter, 46% visible
METAR KPVW 251155Z AUTO 00000KT 10SM BKN028 BKN050 18/17 A3015 RMK AO2 LTG DSNT NE 70001 T01750165 10188 20172
Pressure 30.15 in
Visibility 10.0 miles
Clouds Mostly Cloudy 2800 ft
Mostly Cloudy 5000 ft
Dew Point 58 °F
Humidity 90%
Rainfall 0.00 in
Snow Depth Not available.
7:18 AM 8:23 PM
Last Quarter, 46% visible
METAR KPVW 251155Z AUTO 00000KT 10SM BKN028 BKN050 18/17 A3015 RMK AO2 LTG DSNT NE 70001 T01750165 10188 20172

10-Day Weather Forecast

Almanac

Astronomy

Aug. 25, 2016 Rise Set
Actual Time
Civil Twilight
Nautical Twilight
Astronomical Twilight
Moon
Length of Visible Light
Length of Day
Tomorrow will be .
, % of the Moon is Illuminated

Today's Extremes

State Highs State Lows

Community

WunderPhotos

Upload Photos

1,934,821 photos uploaded!

WunderBlog® & News

Nearby

Air Quality

  Air Quality AQ Index Pollutant
Not available.

Snow Depth

Station Depth Elevation

Earthquake Activity

City Distance Mag. Time & Date
Minimum magnitude displayed is 2.5.

Coastal Water Temperatures

Place Temperature

Stations

Nearby Weather Stations

Station Location Temp. Windchill Dew Point Humidity Wind Precip. Elev Updated Type
                   

Watches & Warnings

There are currently no watches in effect.